Time;durP1;ratioP1;P1;durP2;ratioP2;P2;SDS_P1;SDS_P2;PMS_P1;PMS_P2;Temp;Humidity;BMP_temperature;BMP_pressure;BME280_temperature;BME280_humidity;BME280_pressure;Samples;Min_cycle;Max_cycle;Signal;HPM_P1;HPM_P2
2023/09/02 00:01:36;;;;;;;4.70;2.72;;;;;;;15.16;100.00;97556.44;5070079;28;20488;-75
2023/09/02 00:04:02;;;;;;;3.80;2.22;;;;;;;15.15;100.00;97557.50;5070333;28;20400;-75
2023/09/02 00:06:29;;;;;;;7.65;2.30;;;;;;;15.15;100.00;97560.19;5070317;28;20396;-75
2023/09/02 00:08:55;;;;;;;4.53;2.58;;;;;;;15.13;100.00;97564.19;5070314;28;20793;-75
2023/09/02 00:11:21;;;;;;;5.57;2.83;;;;;;;15.12;100.00;97563.38;5069892;28;20499;-75
2023/09/02 00:13:47;;;;;;;4.05;2.60;;;;;;;15.10;100.00;97570.88;5070359;28;20457;-75
2023/09/02 00:16:16;;;;;;;4.03;2.58;;;;;;;15.07;100.00;97563.41;5072456;28;20730;-75
2023/09/02 00:18:44;;;;;;;4.53;2.42;;;;;;;15.07;100.00;97566.09;5074286;28;20971;-75
2023/09/02 00:21:11;;;;;;;5.05;2.53;;;;;;;15.06;100.00;97565.28;5073950;28;20399;-75
2023/09/02 00:23:39;;;;;;;3.22;2.25;;;;;;;15.05;100.00;97561.03;5074110;28;20396;-75
2023/09/02 00:26:05;;;;;;;4.05;2.45;;;;;;;15.05;100.00;97562.88;5073987;28;20482;-75
2023/09/02 00:28:31;;;;;;;4.20;2.40;;;;;;;15.04;100.00;97566.63;5074023;28;20399;-75
2023/09/02 00:30:58;;;;;;;3.80;2.40;;;;;;;15.03;100.00;97575.72;5074023;28;20412;-75
2023/09/02 00:33:25;;;;;;;4.85;2.58;;;;;;;14.97;100.00;97569.59;5073446;28;20877;-75
2023/09/02 00:35:51;;;;;;;4.25;2.53;;;;;;;14.95;100.00;97566.44;5074005;28;20449;-75
2023/09/02 00:38:18;;;;;;;3.65;2.38;;;;;;;14.95;100.00;97570.97;5073859;28;20400;-75
2023/09/02 00:40:54;;;;;;;3.78;2.33;;;;;;;14.95;100.00;97570.97;5073948;28;20394;-75
2023/09/02 00:43:21;;;;;;;3.85;2.20;;;;;;;14.94;100.00;97577.34;5073615;28;20491;-76
2023/09/02 00:45:47;;;;;;;3.53;2.20;;;;;;;14.92;100.00;97572.28;5074159;28;20509;-76
2023/09/02 00:48:14;;;;;;;2.60;2.00;;;;;;;14.90;100.00;97577.09;5073798;28;20891;-75
2023/09/02 00:50:41;;;;;;;2.97;2.10;;;;;;;14.90;100.00;97577.09;5073634;28;20812;-75
2023/09/02 00:53:07;;;;;;;2.95;1.90;;;;;;;14.89;100.00;97578.16;5073463;28;20403;-75
2023/09/02 00:55:34;;;;;;;3.17;2.20;;;;;;;14.89;100.00;97578.16;5073666;28;20396;-75
2023/09/02 00:58:01;;;;;;;4.60;2.35;;;;;;;14.87;100.00;97577.66;5073681;28;20766;-75
2023/09/02 01:00:27;;;;;;;3.38;2.20;;;;;;;14.85;100.00;97571.78;5073533;28;20408;-75
2023/09/02 01:02:54;;;;;;;3.57;2.20;;;;;;;14.83;100.00;97576.59;5073284;28;20403;-75
2023/09/02 01:05:21;;;;;;;3.38;2.17;;;;;;;14.83;100.00;97579.25;5073442;28;20414;-75
2023/09/02 01:07:50;;;;;;;3.38;2.10;;;;;;;14.84;100.00;97580.06;5073414;28;20897;-75
2023/09/02 01:10:17;;;;;;;3.35;2.00;;;;;;;14.83;100.00;97573.94;5072498;28;20438;-75
2023/09/02 01:12:44;;;;;;;3.80;2.00;;;;;;;14.82;100.00;97575.00;5073064;28;20395;-75
2023/09/02 01:15:10;;;;;;;4.57;1.95;;;;;;;14.82;100.00;97574.19;5073256;28;20410;-75
2023/09/02 01:17:36;;;;;;;2.83;2.20;;;;;;;14.80;100.00;97571.03;5073115;28;20407;-75
2023/09/02 01:20:05;;;;;;;3.50;2.00;;;;;;;14.76;100.00;97573.44;5073218;28;20412;-75
2023/09/02 01:22:56;;;;;;;3.70;1.90;;;;;;;14.72;100.00;97575.06;5072882;28;20396;-75
2023/09/02 01:25:39;;;;;;;2.92;2.00;;;;;;;14.70;100.00;97574.53;5072993;28;20521;-75
2023/09/02 01:28:16;;;;;;;3.97;2.05;;;;;;;14.65;100.00;97574.56;5072087;28;20400;-75
2023/09/02 01:30:46;;;;;;;3.38;2.22;;;;;;;14.64;100.00;97564.97;5072937;28;20415;-75
2023/09/02 01:33:13;;;;;;;3.00;2.13;;;;;;;14.65;100.00;97575.34;5072686;28;20395;-75
2023/09/02 01:35:41;;;;;;;4.03;2.13;;;;;;;14.65;100.00;97575.34;5072896;28;20414;-75
2023/09/02 01:38:07;;;;;;;1.98;1.75;;;;;;;14.64;100.00;97579.09;5072727;28;20916;-75
2023/09/02 01:40:35;;;;;;;2.22;1.60;;;;;;;14.63;100.00;97580.16;5072784;28;20483;-75
2023/09/02 01:43:03;;;;;;;1.85;1.52;;;;;;;14.62;100.00;97585.75;5072586;28;20415;-75
2023/09/02 01:45:34;;;;;;;2.97;1.90;;;;;;;14.59;100.00;97581.75;5072736;28;20395;-75
2023/09/02 01:48:01;;;;;;;2.75;1.80;;;;;;;14.58;100.00;97577.50;5072918;28;20395;-75
2023/09/02 01:50:30;;;;;;;2.63;1.98;;;;;;;14.56;100.00;97582.31;5072471;28;20423;-75
2023/09/02 01:52:58;;;;;;;4.40;2.10;;;;;;;14.54;100.00;97589.75;5072441;28;20399;-75
2023/09/02 01:55:24;;;;;;;3.40;2.08;;;;;;;14.53;100.00;97579.38;5072550;28;20415;-75
2023/09/02 01:57:52;;;;;;;3.63;1.90;;;;;;;14.52;100.00;97594.56;5072473;28;20424;-75
2023/09/02 02:00:18;;;;;;;2.33;1.92;;;;;;;14.52;100.00;97589.22;5071952;28;20396;-75
2023/09/02 02:02:49;;;;;;;2.40;1.77;;;;;;;14.50;100.00;97587.91;5071994;28;20450;-75
2023/09/02 02:05:17;;;;;;;3.42;1.80;;;;;;;14.49;100.00;97581.00;5072336;28;20403;-76
2023/09/02 02:07:47;;;;;;;2.45;1.85;;;;;;;14.49;100.00;97592.44;5072327;28;20411;-75
2023/09/02 02:10:17;;;;;;;2.65;1.77;;;;;;;14.49;100.00;97588.97;5072203;28;20502;-76
2023/09/02 02:12:44;;;;;;;2.67;1.70;;;;;;;14.49;100.00;97587.13;5071985;28;20754;-75
2023/09/02 02:15:11;;;;;;;2.15;1.75;;;;;;;14.47;100.00;97588.44;5072265;28;20400;-75
2023/09/02 02:17:38;;;;;;;1.85;1.60;;;;;;;14.45;100.00;97596.69;5072187;28;20411;-75
2023/09/02 02:20:11;;;;;;;3.67;1.70;;;;;;;14.42;100.00;97599.94;5071819;28;20407;-75
2023/09/02 02:22:39;;;;;;;3.92;2.03;;;;;;;14.41;100.00;97601.00;5071810;28;20490;-75
2023/09/02 02:25:05;;;;;;;2.53;1.80;;;;;;;14.39;100.00;97597.00;5071834;28;20407;-76
2023/09/02 02:27:31;;;;;;;3.20;2.00;;;;;;;14.37;100.00;97593.75;5071814;28;20904;-75
2023/09/02 02:29:58;;;;;;;3.55;1.95;;;;;;;14.37;100.00;97596.41;5071752;28;20399;-75
2023/09/02 02:32:24;;;;;;;3.17;2.00;;;;;;;14.36;100.00;97608.16;5071492;28;20399;-75
2023/09/02 02:34:50;;;;;;;4.10;2.10;;;;;;;14.34;100.00;97595.91;5071808;28;20460;-75
2023/09/02 02:37:18;;;;;;;2.92;2.13;;;;;;;14.33;100.00;97604.16;5071665;28;20396;-75
2023/09/02 02:39:44;;;;;;;4.43;2.15;;;;;;;14.33;100.00;97606.84;5071706;28;20975;-75
2023/09/02 02:42:10;;;;;;;2.92;2.03;;;;;;;14.30;100.00;97610.81;5071407;28;20395;-75
2023/09/02 02:44:36;;;;;;;4.77;2.47;;;;;;;14.28;100.00;97606.84;5071467;28;20399;-75
2023/09/02 02:47:03;;;;;;;4.45;2.22;;;;;;;14.27;100.00;97599.94;5071540;28;20396;-75
2023/09/02 02:49:29;;;;;;;3.38;2.15;;;;;;;14.27;100.00;97606.06;5071460;28;20399;-75
2023/09/02 02:51:56;;;;;;;2.90;2.00;;;;;;;14.27;100.00;97591.94;5071123;28;20416;-75
2023/09/02 02:54:24;;;;;;;2.90;2.05;;;;;;;14.28;100.00;97598.88;5071113;28;20935;-75
2023/09/02 02:56:50;;;;;;;3.00;2.15;;;;;;;14.27;100.00;97600.72;5071291;28;20407;-75
2023/09/02 02:59:17;;;;;;;3.88;2.10;;;;;;;14.24;100.00;97598.59;5071246;28;20465;-75
2023/09/02 03:01:44;;;;;;;3.67;2.40;;;;;;;14.23;100.00;97594.31;5071067;28;20849;-75
2023/09/02 03:04:10;;;;;;;5.55;2.42;;;;;;;14.22;100.00;97606.03;5071257;28;20404;-75
2023/09/02 03:06:36;;;;;;;3.35;2.33;;;;;;;14.20;100.00;97588.75;5071152;28;20443;-75
2023/09/02 03:09:02;;;;;;;4.27;2.40;;;;;;;14.17;100.00;97595.41;5071088;28;20915;-75
2023/09/02 03:11:30;;;;;;;3.50;2.45;;;;;;;14.16;100.00;97595.66;5070692;28;20932;-75
2023/09/02 03:13:58;;;;;;;4.05;2.45;;;;;;;14.12;100.00;97605.28;5071077;28;20408;-75
2023/09/02 03:16:25;;;;;;;4.15;2.50;;;;;;;14.12;100.00;97605.28;5070994;28;20396;-75
2023/09/02 03:18:53;;;;;;;3.85;2.15;;;;;;;14.13;100.00;97612.19;5071044;28;20478;-75
2023/09/02 03:21:19;;;;;;;3.43;2.57;;;;;;;14.10;100.00;97605.53;5070713;28;20408;-75
2023/09/02 03:23:46;;;;;;;3.80;2.78;;;;;;;14.07;100.00;97607.91;5070965;28;20498;-75
2023/09/02 03:26:17;;;;;;;4.78;2.63;;;;;;;14.04;100.00;97609.28;5070838;28;20431;-75
2023/09/02 03:28:45;;;;;;;4.18;2.72;;;;;;;14.04;100.00;97611.13;5070788;28;20504;-76
2023/09/02 03:31:12;;;;;;;4.90;2.67;;;;;;;14.03;100.00;97612.19;5070492;28;20420;-75
2023/09/02 03:33:38;;;;;;;4.33;3.00;;;;;;;13.99;100.00;97616.44;5070903;28;20494;-75
2023/09/02 03:36:06;;;;;;;4.25;2.90;;;;;;;13.95;100.00;97606.34;5070783;28;20395;-75
2023/09/02 03:38:33;;;;;;;5.75;2.92;;;;;;;13.95;100.00;97610.88;5070704;28;20399;-75
2023/09/02 03:40:59;;;;;;;4.50;2.88;;;;;;;13.95;100.00;97611.66;5070717;28;20537;-75
2023/09/02 03:43:25;;;;;;;3.70;2.75;;;;;;;13.95;100.00;97613.53;5070440;28;20407;-75
2023/09/02 03:45:56;;;;;;;5.50;3.00;;;;;;;13.90;100.00;97609.00;5070692;28;20874;-75
2023/09/02 03:48:22;;;;;;;4.00;2.60;;;;;;;13.90;100.00;97608.22;5070732;28;20412;-75
2023/09/02 03:51:05;;;;;;;5.45;2.75;;;;;;;13.90;100.00;97609.00;5070033;28;20895;-75
2023/09/02 03:53:32;;;;;;;4.90;3.03;;;;;;;13.90;100.00;97609.00;5070585;28;20399;-75
2023/09/02 03:55:59;;;;;;;5.23;3.10;;;;;;;13.89;100.00;97606.63;5070590;28;20780;-75
2023/09/02 03:58:26;;;;;;;3.42;2.70;;;;;;;13.86;100.00;97594.63;5070592;28;20419;-75
2023/09/02 04:00:55;;;;;;;5.20;2.58;;;;;;;13.88;100.00;97605.81;5070473;28;20486;-75
2023/09/02 04:03:22;;;;;;;4.40;2.30;;;;;;;13.87;100.00;97603.41;5070280;28;20773;-75
2023/09/02 04:05:48;;;;;;;5.17;2.53;;;;;;;13.85;100.00;97616.19;5070370;28;20479;-75
2023/09/02 04:08:18;;;;;;;5.13;2.22;;;;;;;13.83;100.00;97618.31;5070734;28;20745;-75
2023/09/02 04:10:44;;;;;;;5.32;2.88;;;;;;;13.81;100.00;97618.59;5070349;28;20429;-75
2023/09/02 04:13:11;;;;;;;3.85;2.30;;;;;;;13.80;100.00;97622.31;5070156;28;20399;-75
2023/09/02 04:15:37;;;;;;;4.00;2.30;;;;;;;13.80;100.00;97618.84;5070432;28;20535;-75
2023/09/02 04:18:06;;;;;;;3.17;2.25;;;;;;;13.79;100.00;97614.59;5070423;28;20458;-75
2023/09/02 04:20:35;;;;;;;3.10;2.10;;;;;;;13.77;100.00;97620.16;5070382;28;20400;-75
2023/09/02 04:23:01;;;;;;;3.40;2.28;;;;;;;13.77;100.00;97620.16;5070198;28;20407;-75
2023/09/02 04:25:27;;;;;;;3.17;2.40;;;;;;;13.76;100.00;97623.09;5070116;28;20885;-75
2023/09/02 04:27:54;;;;;;;3.83;2.30;;;;;;;13.76;100.00;97626.53;5070465;28;20411;-75
2023/09/02 04:30:22;;;;;;;4.65;2.28;;;;;;;13.75;100.00;97624.19;5070191;28;20425;-75
2023/09/02 04:32:49;;;;;;;3.15;2.10;;;;;;;13.73;100.00;97627.09;5070083;28;20820;-75
2023/09/02 04:35:16;;;;;;;3.70;2.50;;;;;;;13.72;100.00;97627.34;5070316;28;20396;-75
2023/09/02 04:37:43;;;;;;;3.07;2.40;;;;;;;13.71;100.00;97633.72;5070221;28;20410;-75
2023/09/02 04:40:10;;;;;;;3.33;2.40;;;;;;;13.72;100.00;97636.13;5070199;28;20424;-75
2023/09/02 04:42:41;;;;;;;3.25;2.30;;;;;;;13.73;100.00;97628.94;5069908;28;20415;-75
2023/09/02 04:45:08;;;;;;;3.70;2.50;;;;;;;13.75;100.00;97630.28;5070217;28;20467;-75
2023/09/02 04:47:34;;;;;;;4.38;2.50;;;;;;;13.74;100.00;97638.53;5069906;28;20396;-75
2023/09/02 04:50:02;;;;;;;4.45;2.30;;;;;;;13.73;100.00;97628.94;5070063;28;20495;-75
2023/09/02 04:52:29;;;;;;;3.63;2.30;;;;;;;13.72;100.00;97633.47;5069890;28;20431;-75
2023/09/02 04:54:55;;;;;;;7.05;2.95;;;;;;;13.69;100.00;97633.19;5069933;28;20396;-75
2023/09/02 04:57:22;;;;;;;3.67;2.57;;;;;;;13.66;100.00;97639.06;5069897;28;20403;-75
2023/09/02 04:59:48;;;;;;;4.40;2.90;;;;;;;13.66;100.00;97647.03;5070087;28;20491;-75
2023/09/02 05:02:14;;;;;;;3.28;2.38;;;;;;;13.66;100.00;97650.50;5069997;28;20479;-75
2023/09/02 05:04:40;;;;;;;4.00;2.55;;;;;;;13.67;100.00;97646.78;5073609;28;20912;-75
2023/09/02 05:07:06;;;;;;;3.00;2.22;;;;;;;13.67;100.00;97649.44;5073537;28;20457;-75
2023/09/02 05:09:34;;;;;;;3.20;2.20;;;;;;;13.70;100.00;97648.09;5073405;28;20407;-75
2023/09/02 05:12:00;;;;;;;3.50;2.37;;;;;;;13.70;100.00;97664.84;5073101;28;20419;-75
2023/09/02 05:14:26;;;;;;;4.75;3.10;;;;;;;13.69;100.00;97665.91;5073300;28;20398;-75
2023/09/02 05:16:52;;;;;;;6.35;3.47;;;;;;;13.67;100.00;97664.59;5073245;28;20404;-75
2023/09/02 05:19:19;;;;;;;6.45;3.40;;;;;;;13.65;100.00;97662.19;5073321;28;20400;-75
2023/09/02 05:21:46;;;;;;;5.95;3.38;;;;;;;13.66;100.00;97663.00;5072988;28;20487;-75
2023/09/02 05:24:12;;;;;;;4.82;2.97;;;;;;;13.70;100.00;97651.56;5073229;28;20419;-75
2023/09/02 05:26:40;;;;;;;4.43;3.00;;;;;;;13.76;100.00;97657.66;5072932;28;20400;-75
2023/09/02 05:29:06;;;;;;;4.00;2.70;;;;;;;13.81;100.00;97660.34;5072809;28;20400;-75
2023/09/02 05:31:32;;;;;;;4.63;3.07;;;;;;;13.84;100.00;97665.13;5072555;28;20419;-75
2023/09/02 05:33:59;;;;;;;3.75;2.67;;;;;;;13.85;100.00;97664.06;5056354;28;20438;-75
2023/09/02 05:36:25;;;;;;;4.07;2.80;;;;;;;13.87;100.00;97664.63;5072299;28;20410;-75
2023/09/02 05:38:51;;;;;;;4.68;3.05;;;;;;;13.93;100.00;97664.34;5072355;28;20475;-74
2023/09/02 05:41:17;;;;;;;6.93;2.60;;;;;;;13.98;100.00;97660.91;5071816;28;20392;-75
2023/09/02 05:43:45;;;;;;;3.88;2.50;;;;;;;14.04;100.00;97654.53;5071973;28;20465;-74
2023/09/02 05:46:11;;;;;;;3.15;2.45;;;;;;;14.08;100.00;97671.53;5072136;28;20422;-74
2023/09/02 05:48:37;;;;;;;2.95;1.95;;;;;;;14.14;100.00;97675.00;5072322;28;20407;-74
2023/09/02 05:51:05;;;;;;;3.65;2.20;;;;;;;14.17;100.00;97675.28;5072032;28;20411;-74
2023/09/02 05:53:31;;;;;;;3.13;1.90;;;;;;;14.21;100.00;97678.19;5072079;28;20457;-75
2023/09/02 05:55:57;;;;;;;4.03;2.15;;;;;;;14.24;100.00;97680.31;5072030;28;20395;-75
2023/09/02 05:58:25;;;;;;;2.72;2.00;;;;;;;14.28;100.00;97673.41;5071971;28;20494;-75
2023/09/02 06:00:53;;;;;;;4.03;2.50;;;;;;;14.32;100.00;97679.78;5071911;28;20400;-75
2023/09/02 06:03:19;;;;;;;5.40;2.97;;;;;;;14.38;100.00;97672.59;5071609;28;20396;-75
2023/09/02 06:05:45;;;;;;;4.20;2.70;;;;;;;14.45;100.00;97681.94;5071985;28;20458;-74
2023/09/02 06:08:11;;;;;;;4.80;2.50;;;;;;;14.54;100.00;97676.88;5071715;28;20412;-74
2023/09/02 06:10:38;;;;;;;3.70;2.70;;;;;;;14.60;100.00;97673.13;5071583;28;20473;-74
2023/09/02 06:13:04;;;;;;;3.08;2.58;;;;;;;14.66;100.00;97680.84;5071139;28;20453;-74
2023/09/02 06:15:30;;;;;;;3.35;2.40;;;;;;;14.71;100.00;97674.72;5071349;28;20465;-74
2023/09/02 06:17:59;;;;;;;2.47;2.00;;;;;;;14.77;100.00;97678.97;5071287;28;20404;-74
2023/09/02 06:20:27;;;;;;;3.47;2.20;;;;;;;14.83;100.00;97677.88;5070993;28;20415;-75
2023/09/02 06:22:53;;;;;;;3.15;2.13;;;;;;;14.89;100.00;97674.13;5071046;28;20761;-75
2023/09/02 06:25:20;;;;;;;3.10;2.17;;;;;;;14.95;100.00;97664.25;5071484;28;20408;-75
2023/09/02 06:27:46;;;;;;;3.90;2.55;;;;;;;15.01;100.00;97673.81;5071787;28;20778;-75
2023/09/02 06:30:13;;;;;;;2.88;1.98;;;;;;;15.06;100.00;97668.47;5071274;28;20400;-75
2023/09/02 06:32:39;;;;;;;3.20;2.17;;;;;;;15.13;100.00;97676.16;5070923;28;20400;-74
2023/09/02 06:35:12;;;;;;;2.58;2.13;;;;;;;15.18;100.00;97668.97;5071817;28;20406;-74
2023/09/02 06:37:38;;;;;;;3.00;2.17;;;;;;;15.25;100.00;97666.00;5071741;28;20976;-74
2023/09/02 06:40:07;;;;;;;2.30;2.05;;;;;;;15.32;100.00;97669.97;5071601;28;20408;-74
2023/09/02 06:42:33;;;;;;;4.18;2.63;;;;;;;15.41;100.00;97670.19;5071389;28;20869;-74
2023/09/02 06:45:00;;;;;;;3.70;2.20;;;;;;;15.53;100.00;97672.53;5071726;28;20404;-74
2023/09/02 06:47:26;;;;;;;3.38;2.35;;;;;;;15.63;100.00;97673.31;5071473;28;20404;-75
2023/09/02 06:49:52;;;;;;;2.92;2.17;;;;;;;15.75;100.00;97673.75;5071377;28;20474;-75
2023/09/02 06:52:20;;;;;;;2.72;1.95;;;;;;;15.86;100.00;97677.16;5068483;28;20909;-75
2023/09/02 06:54:48;;;;;;;3.13;1.92;;;;;;;15.96;100.00;97677.06;5070910;28;20400;-75
2023/09/02 06:57:14;;;;;;;3.57;2.30;;;;;;;16.04;100.00;97681.03;5071066;28;20427;-75
2023/09/02 06:59:41;;;;;;;3.25;2.42;;;;;;;16.14;100.00;97681.75;5071170;28;20400;-75
2023/09/02 07:02:08;;;;;;;4.15;2.50;;;;;;;16.27;100.00;97685.66;5070759;28;20399;-75
2023/09/02 07:04:34;;;;;;;3.20;2.30;;;;;;;16.35;100.00;97685.03;5071111;28;20495;-75
2023/09/02 07:07:00;;;;;;;2.75;2.10;;;;;;;16.46;100.00;97691.09;5071277;28;20400;-75
2023/09/02 07:09:28;;;;;;;3.70;2.42;;;;;;;16.59;100.00;97687.78;5071050;28;20773;-75
2023/09/02 07:11:55;;;;;;;3.20;2.67;;;;;;;16.77;100.00;97681.72;5070648;28;20416;-75
2023/09/02 07:14:21;;;;;;;4.20;2.60;;;;;;;16.89;100.00;97684.81;5070752;28;20404;-75
2023/09/02 07:16:49;;;;;;;4.00;2.30;;;;;;;17.01;100.00;97685.22;5070838;28;20406;-75
2023/09/02 07:19:15;;;;;;;2.00;1.80;;;;;;;17.15;100.00;97685.31;5070954;28;20403;-75
2023/09/02 07:21:41;;;;;;;2.63;1.83;;;;;;;17.28;100.00;97684.63;5070600;28;20513;-75
2023/09/02 07:24:09;;;;;;;2.05;1.85;;;;;;;17.42;100.00;97698.91;5067984;28;20447;-75
2023/09/02 07:26:37;;;;;;;2.38;1.92;;;;;;;17.57;100.00;97689.88;5068065;28;20471;-75
2023/09/02 07:29:03;;;;;;;1.67;1.40;;;;;;;17.72;100.00;97688.91;5070635;28;20784;-76
2023/09/02 07:31:29;;;;;;;2.17;1.60;;;;;;;17.85;100.00;97692.72;5070324;28;20439;-76
2023/09/02 07:33:55;;;;;;;2.08;1.60;;;;;;;17.96;100.00;97688.84;5055660;28;20411;-76
2023/09/02 07:36:22;;;;;;;1.60;1.40;;;;;;;18.08;100.00;97694.53;5070771;28;20882;-76
2023/09/02 07:38:48;;;;;;;1.40;1.30;;;;;;;18.19;100.00;97701.34;5070776;28;20888;-76
2023/09/02 07:41:14;;;;;;;2.03;1.58;;;;;;;18.36;100.00;97709.63;5069762;28;20402;-76
2023/09/02 07:43:42;;;;;;;2.67;2.05;;;;;;;18.23;100.00;97707.69;5069644;28;20765;-76
2023/09/02 07:46:10;;;;;;;2.35;2.00;;;;;;;18.44;100.00;97706.25;5069414;28;20400;-76
2023/09/02 07:48:40;;;;;;;2.40;1.90;;;;;;;18.56;100.00;97700.47;5068282;28;20418;-76
2023/09/02 07:51:06;;;;;;;4.15;2.00;;;;;;;18.59;100.00;97707.91;5069483;28;20461;-76
2023/09/02 07:53:32;;;;;;;3.27;2.37;;;;;;;18.62;100.00;97711.91;5070148;28;20966;-76
2023/09/02 07:55:59;;;;;;;2.72;2.20;;;;;;;18.79;100.00;97707.59;5067624;28;20411;-75
2023/09/02 07:58:25;;;;;;;2.55;2.10;;;;;;;18.88;100.00;97713.03;5069401;28;20843;-75
2023/09/02 08:00:58;;;;;;;1.70;1.60;;;;;;;18.96;100.00;97712.34;5068416;28;20400;-75
2023/09/02 08:03:24;;;;;;;1.65;1.55;;;;;;;19.04;100.00;97718.91;5067277;28;20483;-75
2023/09/02 08:05:52;;;;;;;1.85;1.40;;;;;;;19.09;100.00;97711.59;5068390;28;21032;-75
2023/09/02 08:08:18;;;;;;;1.92;1.73;;;;;;;19.18;100.00;97714.34;5071035;28;20415;-75
2023/09/02 08:10:44;;;;;;;1.60;1.40;;;;;;;19.29;100.00;97718.44;5071062;28;20412;-75
2023/09/02 08:13:10;;;;;;;2.88;1.90;;;;;;;19.39;100.00;97715.56;5069170;28;20400;-75
2023/09/02 08:15:39;;;;;;;2.00;1.70;;;;;;;19.49;100.00;97715.34;5069488;28;20408;-75
2023/09/02 08:18:07;;;;;;;3.40;2.00;;;;;;;19.50;100.00;97716.94;5068911;28;20542;-75
2023/09/02 08:20:35;;;;;;;6.70;2.45;;;;;;;19.36;100.00;97723.41;5069409;28;20402;-76
2023/09/02 08:23:01;;;;;;;2.47;2.08;;;;;;;19.41;100.00;97712.53;5069675;28;20407;-76
2023/09/02 08:25:28;;;;;;;2.47;1.93;;;;;;;19.52;100.00;97720.13;5069712;28;20877;-75
2023/09/02 08:27:54;;;;;;;3.45;2.30;;;;;;;19.48;100.00;97711.09;5067856;28;20407;-76
2023/09/02 08:30:20;;;;;;;4.13;2.33;;;;;;;19.39;100.00;97715.56;5068439;28;20487;-75
2023/09/02 08:32:46;;;;;;;2.47;1.98;;;;;;;19.67;100.00;97711.75;5069725;28;20924;-75
2023/09/02 08:35:14;;;;;;;2.93;2.00;;;;;;;19.76;100.00;97716.44;5070314;28;20414;-75
2023/09/02 08:37:40;;;;;;;2.58;1.90;;;;;;;19.77;100.00;97716.13;5074706;28;20406;-75
2023/09/02 08:40:08;;;;;;;2.25;1.80;;;;;;;19.87;100.00;97712.41;5078387;28;20490;-77
2023/09/02 08:42:38;;;;;;;2.30;1.85;;;;;;;19.84;100.00;97721.09;5072770;28;20392;-76
2023/09/02 08:45:08;;;;;;;3.73;2.30;;;;;;;19.73;100.00;97715.13;5072524;28;20400;-76
2023/09/02 08:47:38;;;;;;;2.20;1.80;;;;;;;20.04;100.00;97726.00;5073510;28;20414;-76
2023/09/02 08:50:07;;;;;;;2.60;1.83;;;;;;;20.21;100.00;97719.97;5073400;28;20883;-76
2023/09/02 08:52:37;;;;;;;2.33;1.90;;;;;;;20.30;100.00;97726.97;5072723;28;20415;-75
2023/09/02 08:55:05;;;;;;;3.53;1.83;;;;;;;20.38;100.00;97738.94;5073168;28;20392;-76
2023/09/02 08:57:33;;;;;;;2.67;1.80;;;;;;;20.47;100.00;97737.09;5073250;28;20402;-76
2023/09/02 09:00:00;;;;;;;1.90;1.70;;;;;;;20.63;100.00;97734.84;5073542;28;20398;-75
2023/09/02 09:02:27;;;;;;;4.28;2.28;;;;;;;20.86;100.00;97736.38;5073173;28;20454;-76
2023/09/02 09:04:54;;;;;;;4.10;2.10;;;;;;;20.87;100.00;97743.38;5073300;28;20399;-76
2023/09/02 09:07:20;;;;;;;2.25;1.80;;;;;;;20.91;100.00;97746.22;5073135;28;20399;-76
2023/09/02 09:09:49;;;;;;;2.33;1.77;;;;;;;20.99;100.00;97748.16;5073395;28;20994;-75
2023/09/02 09:12:17;;;;;;;2.97;1.67;;;;;;;21.03;100.00;97747.25;5072792;28;20800;-75
2023/09/02 09:14:47;;;;;;;1.77;1.48;;;;;;;21.13;100.00;97744.28;5073302;28;21061;-75
2023/09/02 09:17:15;;;;;;;4.40;1.90;;;;;;;21.13;100.00;97748.84;5073027;28;20400;-75
2023/09/02 09:19:41;;;;;;;2.28;1.80;;;;;;;21.26;100.00;97750.72;5073274;28;20502;-76
2023/09/02 09:22:07;;;;;;;2.85;1.80;;;;;;;21.36;100.00;97755.00;5072776;28;20399;-76
2023/09/02 09:24:34;;;;;;;1.85;1.52;;;;;;;21.48;100.00;97756.00;5072861;28;20414;-76
2023/09/02 09:27:06;;;;;;;1.40;1.30;;;;;;;21.63;100.00;97760.16;5072947;28;20459;-76
2023/09/02 09:29:40;;;;;;;2.30;1.52;;;;;;;21.67;100.00;97757.63;5072872;28;20451;-76
2023/09/02 09:32:12;;;;;;;2.95;1.60;;;;;;;21.65;100.00;97762.56;5072677;28;20408;-76
2023/09/02 09:34:40;;;;;;;2.15;1.60;;;;;;;21.70;100.00;97757.00;5072630;28;20770;-76
2023/09/02 09:37:08;;;;;;;3.08;1.95;;;;;;;21.96;100.00;97761.34;5072744;28;20866;-76
2023/09/02 09:39:41;;;;;;;2.08;1.45;;;;;;;22.14;100.00;97751.38;5072681;28;20400;-76
2023/09/02 09:42:11;;;;;;;1.98;1.45;;;;;;;22.32;100.00;97755.69;5072505;28;20392;-76
2023/09/02 09:44:54;;;;;;;2.08;1.50;;;;;;;22.45;100.00;97755.81;5072534;28;20441;-76
2023/09/02 09:47:20;;;;;;;1.73;1.42;;;;;;;22.64;100.00;97748.97;5073172;28;20392;-76
2023/09/02 09:49:49;;;;;;;1.55;1.23;;;;;;;22.83;100.00;97745.97;5072608;28;20404;-76
2023/09/02 09:52:16;;;;;;;2.15;1.23;;;;;;;23.02;100.00;97746.38;5072438;28;20447;-76
2023/09/02 09:54:48;;;;;;;1.60;1.42;;;;;;;23.25;100.00;97746.13;5072355;28;20419;-76
2023/09/02 09:57:26;;;;;;;2.28;1.40;;;;;;;23.39;100.00;97744.78;5072432;28;20411;-76
2023/09/02 09:59:52;;;;;;;1.70;1.20;;;;;;;23.54;100.00;97743.47;5072322;28;20478;-76
2023/09/02 10:02:20;;;;;;;1.73;1.40;;;;;;;23.64;100.00;97737.69;5072008;28;20446;-76
2023/09/02 10:04:54;;;;;;;1.42;1.30;;;;;;;23.72;100.00;97738.75;5072245;28;20506;-76
2023/09/02 10:07:24;;;;;;;1.30;1.20;;;;;;;23.79;100.00;97734.41;5054122;28;20409;-76
2023/09/02 10:09:52;;;;;;;1.60;1.30;;;;;;;23.85;100.00;97735.81;5072212;28;20479;-76
2023/09/02 10:12:25;;;;;;;1.77;1.25;;;;;;;23.89;100.00;97730.56;5071146;28;20916;-75
2023/09/02 10:14:51;;;;;;;2.50;1.50;;;;;;;23.69;100.00;97725.91;5054190;28;20400;-75
2023/09/02 10:17:18;;;;;;;2.80;2.00;;;;;;;23.56;100.00;97706.09;5071758;28;20496;-76
2023/09/02 10:19:45;;;;;;;2.17;1.60;;;;;;;23.59;100.00;97732.50;5071860;28;20762;-76
2023/09/02 10:22:22;;;;;;;2.45;1.88;;;;;;;23.67;100.00;97725.44;5071597;28;20396;-76
2023/09/02 10:24:57;;;;;;;2.27;1.50;;;;;;;23.70;100.00;97741.00;5064566;28;20395;-76
2023/09/02 10:27:26;;;;;;;2.13;1.50;;;;;;;23.79;100.00;97741.75;5071781;28;20830;-76
2023/09/02 10:29:56;;;;;;;1.92;1.20;;;;;;;23.95;100.00;97742.75;5071556;28;20396;-76
2023/09/02 10:32:26;;;;;;;2.00;1.45;;;;;;;24.12;100.00;97731.81;5071403;28;20933;-76
2023/09/02 10:35:00;;;;;;;3.17;1.55;;;;;;;23.99;100.00;97730.13;5071682;28;20828;-76
2023/09/02 10:37:32;;;;;;;2.47;1.50;;;;;;;23.92;100.00;97727.97;5071436;28;20445;-76
2023/09/02 10:40:03;;;;;;;4.05;1.45;;;;;;;23.65;100.00;97736.59;5071580;28;20411;-76
2023/09/02 10:42:31;;;;;;;2.10;1.40;;;;;;;23.33;100.00;97735.28;5071323;28;20487;-76
2023/09/02 10:44:58;;;;;;;1.55;1.25;;;;;;;22.98;100.00;97737.34;5071273;28;20399;-76
2023/09/02 10:47:25;;;;;;;1.30;1.20;;;;;;;22.74;100.00;97735.19;5071200;28;20884;-75
2023/09/02 10:49:52;;;;;;;1.58;1.17;;;;;;;22.72;100.00;97734.66;5071181;28;20952;-75
2023/09/02 10:52:18;;;;;;;1.20;1.10;;;;;;;22.77;100.00;97742.66;5070966;28;20418;-75
2023/09/02 10:55:04;;;;;;;1.65;1.20;;;;;;;22.89;100.00;97746.56;5053382;28;20411;-75
2023/09/02 10:57:43;;;;;;;1.27;1.02;;;;;;;23.00;100.00;97737.81;5071058;28;20730;-75
2023/09/02 11:00:16;;;;;;;1.77;1.20;;;;;;;22.97;100.00;97735.75;5071003;28;20427;-75
2023/09/02 11:02:44;;;;;;;1.52;1.10;;;;;;;22.85;100.00;97738.34;5070887;28;20392;-76
2023/09/02 11:05:12;;;;;;;1.50;1.00;;;;;;;22.67;100.00;97729.44;5070865;28;20396;-75
2023/09/02 11:07:39;;;;;;;1.10;1.00;;;;;;;22.58;100.00;97741.38;5070893;28;20401;-77
2023/09/02 11:10:09;;;;;;;1.20;1.00;;;;;;;22.58;100.00;97736.75;5070456;28;20396;-75
2023/09/02 11:13:07;;;;;;;0.98;0.85;;;;;;;22.78;100.00;97736.09;5069579;28;20435;-77
2023/09/02 11:15:34;;;;;;;1.38;0.93;;;;;;;22.92;100.00;97727.84;5068202;28;20472;-77
2023/09/02 11:18:28;;;;;;;1.33;1.10;;;;;;;23.13;100.00;97725.22;5069857;28;20403;-77
2023/09/02 11:20:57;;;;;;;0.93;0.90;;;;;;;23.38;100.00;97723.53;5069672;28;20909;-77
2023/09/02 11:23:24;;;;;;;1.10;0.80;;;;;;;23.69;100.00;97723.19;5069796;28;20391;-76
2023/09/02 11:26:01;;;;;;;1.90;1.13;;;;;;;24.03;100.00;97714.06;5069842;28;20471;-76
2023/09/02 11:28:29;;;;;;;1.80;1.07;;;;;;;24.32;100.00;97710.50;5070607;28;20506;-76